sensor_id;sensor_type;location;lat;lon;timestamp;P1;durP1;ratioP1;P2;durP2;ratioP2
38693;SDS011;24447;43.460;25.744;2024-02-23T00:01:05;17.85;;;5.30;;
38693;SDS011;24447;43.460;25.744;2024-02-23T00:03:32;12.48;;;4.60;;
38693;SDS011;24447;43.460;25.744;2024-02-23T00:06:01;13.07;;;4.38;;
38693;SDS011;24447;43.460;25.744;2024-02-23T00:08:27;14.90;;;5.47;;
38693;SDS011;24447;43.460;25.744;2024-02-23T00:10:52;12.95;;;5.10;;
38693;SDS011;24447;43.460;25.744;2024-02-23T00:13:18;12.90;;;4.60;;
38693;SDS011;24447;43.460;25.744;2024-02-23T00:15:44;14.50;;;5.95;;
38693;SDS011;24447;43.460;25.744;2024-02-23T00:18:10;12.05;;;4.63;;
38693;SDS011;24447;43.460;25.744;2024-02-23T00:20:38;15.85;;;5.18;;
38693;SDS011;24447;43.460;25.744;2024-02-23T00:23:04;19.77;;;5.93;;
38693;SDS011;24447;43.460;25.744;2024-02-23T00:25:29;12.40;;;5.60;;
38693;SDS011;24447;43.460;25.744;2024-02-23T00:27:55;15.27;;;6.28;;
38693;SDS011;24447;43.460;25.744;2024-02-23T00:30:21;15.85;;;6.20;;
38693;SDS011;24447;43.460;25.744;2024-02-23T00:32:47;39.40;;;11.35;;
38693;SDS011;24447;43.460;25.744;2024-02-23T00:35:13;35.17;;;11.52;;
38693;SDS011;24447;43.460;25.744;2024-02-23T00:37:39;85.85;;;24.38;;
38693;SDS011;24447;43.460;25.744;2024-02-23T00:40:05;80.65;;;24.25;;
38693;SDS011;24447;43.460;25.744;2024-02-23T00:42:32;106.55;;;26.55;;
38693;SDS011;24447;43.460;25.744;2024-02-23T00:44:58;87.97;;;22.08;;
38693;SDS011;24447;43.460;25.744;2024-02-23T00:47:23;106.03;;;28.77;;
38693;SDS011;24447;43.460;25.744;2024-02-23T00:49:49;101.28;;;26.88;;
38693;SDS011;24447;43.460;25.744;2024-02-23T00:52:15;92.47;;;22.10;;
38693;SDS011;24447;43.460;25.744;2024-02-23T00:54:41;116.53;;;27.67;;
38693;SDS011;24447;43.460;25.744;2024-02-23T00:57:07;107.95;;;31.02;;
38693;SDS011;24447;43.460;25.744;2024-02-23T00:59:33;120.60;;;34.45;;
38693;SDS011;24447;43.460;25.744;2024-02-23T01:01:59;114.05;;;28.65;;
38693;SDS011;24447;43.460;25.744;2024-02-23T01:04:25;64.93;;;18.20;;
38693;SDS011;24447;43.460;25.744;2024-02-23T01:06:51;48.05;;;15.88;;
38693;SDS011;24447;43.460;25.744;2024-02-23T01:09:17;58.42;;;17.60;;
38693;SDS011;24447;43.460;25.744;2024-02-23T01:11:45;45.45;;;13.55;;
38693;SDS011;24447;43.460;25.744;2024-02-23T01:14:12;38.70;;;10.73;;
38693;SDS011;24447;43.460;25.744;2024-02-23T01:16:38;31.98;;;8.95;;
38693;SDS011;24447;43.460;25.744;2024-02-23T01:19:04;39.38;;;10.60;;
38693;SDS011;24447;43.460;25.744;2024-02-23T01:21:30;30.85;;;9.43;;
38693;SDS011;24447;43.460;25.744;2024-02-23T01:23:56;43.97;;;11.90;;
38693;SDS011;24447;43.460;25.744;2024-02-23T01:26:22;68.90;;;21.02;;
38693;SDS011;24447;43.460;25.744;2024-02-23T01:28:49;89.00;;;25.73;;
38693;SDS011;24447;43.460;25.744;2024-02-23T01:31:15;78.22;;;25.42;;
38693;SDS011;24447;43.460;25.744;2024-02-23T01:33:40;61.88;;;19.95;;
38693;SDS011;24447;43.460;25.744;2024-02-23T01:36:07;44.65;;;13.55;;
38693;SDS011;24447;43.460;25.744;2024-02-23T01:38:34;34.70;;;10.40;;
38693;SDS011;24447;43.460;25.744;2024-02-23T01:41:00;50.38;;;13.90;;
38693;SDS011;24447;43.460;25.744;2024-02-23T01:43:26;38.42;;;13.82;;
38693;SDS011;24447;43.460;25.744;2024-02-23T01:45:52;28.17;;;9.18;;
38693;SDS011;24447;43.460;25.744;2024-02-23T01:48:18;29.20;;;8.68;;
38693;SDS011;24447;43.460;25.744;2024-02-23T01:50:44;25.88;;;6.85;;
38693;SDS011;24447;43.460;25.744;2024-02-23T01:53:10;29.20;;;9.75;;
38693;SDS011;24447;43.460;25.744;2024-02-23T01:55:39;29.30;;;10.63;;
38693;SDS011;24447;43.460;25.744;2024-02-23T01:58:09;28.17;;;8.88;;
38693;SDS011;24447;43.460;25.744;2024-02-23T02:00:35;23.58;;;7.65;;
38693;SDS011;24447;43.460;25.744;2024-02-23T02:03:01;21.08;;;6.32;;
38693;SDS011;24447;43.460;25.744;2024-02-23T02:05:28;17.67;;;5.40;;
38693;SDS011;24447;43.460;25.744;2024-02-23T02:07:55;14.23;;;5.80;;
38693;SDS011;24447;43.460;25.744;2024-02-23T02:10:24;18.90;;;6.38;;
38693;SDS011;24447;43.460;25.744;2024-02-23T02:12:51;18.20;;;5.38;;
38693;SDS011;24447;43.460;25.744;2024-02-23T02:15:17;10.05;;;4.85;;
38693;SDS011;24447;43.460;25.744;2024-02-23T02:17:43;17.77;;;5.55;;
38693;SDS011;24447;43.460;25.744;2024-02-23T02:20:11;13.82;;;4.97;;
38693;SDS011;24447;43.460;25.744;2024-02-23T02:22:38;16.02;;;5.90;;
38693;SDS011;24447;43.460;25.744;2024-02-23T02:25:05;15.90;;;5.68;;
38693;SDS011;24447;43.460;25.744;2024-02-23T02:27:31;14.85;;;5.30;;
38693;SDS011;24447;43.460;25.744;2024-02-23T02:29:57;14.82;;;5.43;;
38693;SDS011;24447;43.460;25.744;2024-02-23T02:32:23;11.70;;;4.85;;
38693;SDS011;24447;43.460;25.744;2024-02-23T02:34:49;15.27;;;5.15;;
38693;SDS011;24447;43.460;25.744;2024-02-23T02:37:15;14.95;;;4.80;;
38693;SDS011;24447;43.460;25.744;2024-02-23T02:39:41;18.35;;;6.13;;
38693;SDS011;24447;43.460;25.744;2024-02-23T02:42:07;28.73;;;8.15;;
38693;SDS011;24447;43.460;25.744;2024-02-23T02:44:33;11.88;;;4.70;;
38693;SDS011;24447;43.460;25.744;2024-02-23T02:46:59;13.38;;;4.82;;
38693;SDS011;24447;43.460;25.744;2024-02-23T02:49:26;19.80;;;6.40;;
38693;SDS011;24447;43.460;25.744;2024-02-23T02:51:52;14.48;;;5.03;;
38693;SDS011;24447;43.460;25.744;2024-02-23T02:54:18;11.48;;;4.85;;
38693;SDS011;24447;43.460;25.744;2024-02-23T02:56:44;18.60;;;7.38;;
38693;SDS011;24447;43.460;25.744;2024-02-23T02:59:11;17.63;;;5.57;;
38693;SDS011;24447;43.460;25.744;2024-02-23T03:01:37;14.02;;;5.00;;
38693;SDS011;24447;43.460;25.744;2024-02-23T03:04:03;14.48;;;4.68;;
38693;SDS011;24447;43.460;25.744;2024-02-23T03:06:29;15.68;;;5.15;;
38693;SDS011;24447;43.460;25.744;2024-02-23T03:08:55;17.60;;;5.45;;
38693;SDS011;24447;43.460;25.744;2024-02-23T03:11:21;16.75;;;5.90;;
38693;SDS011;24447;43.460;25.744;2024-02-23T03:13:47;14.32;;;5.20;;
38693;SDS011;24447;43.460;25.744;2024-02-23T03:16:16;17.63;;;5.93;;
38693;SDS011;24447;43.460;25.744;2024-02-23T03:18:43;12.95;;;5.32;;
38693;SDS011;24447;43.460;25.744;2024-02-23T03:21:09;17.42;;;6.10;;
38693;SDS011;24447;43.460;25.744;2024-02-23T03:23:35;17.92;;;5.90;;
38693;SDS011;24447;43.460;25.744;2024-02-23T03:26:01;18.15;;;5.05;;
38693;SDS011;24447;43.460;25.744;2024-02-23T03:28:28;14.57;;;5.30;;
38693;SDS011;24447;43.460;25.744;2024-02-23T03:30:54;15.90;;;6.18;;
38693;SDS011;24447;43.460;25.744;2024-02-23T03:33:20;18.90;;;5.72;;
38693;SDS011;24447;43.460;25.744;2024-02-23T03:35:45;16.15;;;5.88;;
38693;SDS011;24447;43.460;25.744;2024-02-23T03:38:11;17.52;;;6.57;;
38693;SDS011;24447;43.460;25.744;2024-02-23T03:40:37;19.42;;;6.50;;
38693;SDS011;24447;43.460;25.744;2024-02-23T03:43:03;21.40;;;7.07;;
38693;SDS011;24447;43.460;25.744;2024-02-23T03:45:30;15.35;;;5.85;;
38693;SDS011;24447;43.460;25.744;2024-02-23T03:47:56;11.60;;;5.15;;
38693;SDS011;24447;43.460;25.744;2024-02-23T03:50:22;16.25;;;5.78;;
38693;SDS011;24447;43.460;25.744;2024-02-23T03:52:48;17.25;;;6.70;;
38693;SDS011;24447;43.460;25.744;2024-02-23T03:55:14;15.13;;;6.30;;
38693;SDS011;24447;43.460;25.744;2024-02-23T03:57:40;16.00;;;6.32;;
38693;SDS011;24447;43.460;25.744;2024-02-23T04:00:06;20.55;;;7.10;;
38693;SDS011;24447;43.460;25.744;2024-02-23T04:02:33;19.52;;;7.80;;
38693;SDS011;24447;43.460;25.744;2024-02-23T04:04:59;16.85;;;6.75;;
38693;SDS011;24447;43.460;25.744;2024-02-23T04:07:25;13.07;;;5.45;;
38693;SDS011;24447;43.460;25.744;2024-02-23T04:09:51;14.93;;;5.43;;
38693;SDS011;24447;43.460;25.744;2024-02-23T04:12:19;14.15;;;5.60;;
38693;SDS011;24447;43.460;25.744;2024-02-23T04:14:46;20.25;;;5.53;;
38693;SDS011;24447;43.460;25.744;2024-02-23T04:17:12;16.23;;;5.93;;
38693;SDS011;24447;43.460;25.744;2024-02-23T04:19:38;14.43;;;5.35;;
38693;SDS011;24447;43.460;25.744;2024-02-23T04:22:05;22.67;;;7.63;;
38693;SDS011;24447;43.460;25.744;2024-02-23T04:24:34;12.00;;;4.93;;
38693;SDS011;24447;43.460;25.744;2024-02-23T04:27:01;18.63;;;5.80;;
38693;SDS011;24447;43.460;25.744;2024-02-23T04:29:28;12.77;;;5.60;;
38693;SDS011;24447;43.460;25.744;2024-02-23T04:31:53;15.88;;;6.03;;
38693;SDS011;24447;43.460;25.744;2024-02-23T04:34:19;15.90;;;6.20;;
38693;SDS011;24447;43.460;25.744;2024-02-23T04:36:45;20.63;;;5.88;;
38693;SDS011;24447;43.460;25.744;2024-02-23T04:39:11;19.02;;;5.95;;
38693;SDS011;24447;43.460;25.744;2024-02-23T04:41:37;17.92;;;6.18;;
38693;SDS011;24447;43.460;25.744;2024-02-23T04:44:03;15.02;;;5.95;;
38693;SDS011;24447;43.460;25.744;2024-02-23T04:46:30;13.95;;;6.05;;
38693;SDS011;24447;43.460;25.744;2024-02-23T04:48:56;15.55;;;6.43;;
38693;SDS011;24447;43.460;25.744;2024-02-23T04:51:22;21.00;;;6.10;;
38693;SDS011;24447;43.460;25.744;2024-02-23T04:53:48;17.10;;;6.72;;
38693;SDS011;24447;43.460;25.744;2024-02-23T04:56:15;15.98;;;6.15;;
38693;SDS011;24447;43.460;25.744;2024-02-23T04:58:41;12.98;;;4.93;;
38693;SDS011;24447;43.460;25.744;2024-02-23T05:01:07;19.00;;;6.43;;
38693;SDS011;24447;43.460;25.744;2024-02-23T05:03:34;17.83;;;5.20;;
38693;SDS011;24447;43.460;25.744;2024-02-23T05:06:01;14.65;;;6.32;;
38693;SDS011;24447;43.460;25.744;2024-02-23T05:08:27;17.73;;;6.85;;
38693;SDS011;24447;43.460;25.744;2024-02-23T05:10:55;15.73;;;5.13;;
38693;SDS011;24447;43.460;25.744;2024-02-23T05:13:21;20.52;;;6.05;;
38693;SDS011;24447;43.460;25.744;2024-02-23T05:15:47;15.50;;;5.20;;
38693;SDS011;24447;43.460;25.744;2024-02-23T05:18:13;17.63;;;5.70;;
38693;SDS011;24447;43.460;25.744;2024-02-23T05:20:39;18.63;;;6.25;;
38693;SDS011;24447;43.460;25.744;2024-02-23T05:23:05;21.98;;;7.65;;
38693;SDS011;24447;43.460;25.744;2024-02-23T05:25:31;19.63;;;5.20;;
38693;SDS011;24447;43.460;25.744;2024-02-23T05:27:57;13.57;;;6.07;;
38693;SDS011;24447;43.460;25.744;2024-02-23T05:30:23;15.00;;;4.68;;
38693;SDS011;24447;43.460;25.744;2024-02-23T05:32:49;18.70;;;6.03;;
38693;SDS011;24447;43.460;25.744;2024-02-23T05:35:15;14.60;;;5.38;;
38693;SDS011;24447;43.460;25.744;2024-02-23T05:37:42;18.77;;;6.15;;
38693;SDS011;24447;43.460;25.744;2024-02-23T05:40:08;19.23;;;6.47;;
38693;SDS011;24447;43.460;25.744;2024-02-23T05:42:37;22.00;;;6.68;;
38693;SDS011;24447;43.460;25.744;2024-02-23T05:45:03;24.48;;;6.20;;
38693;SDS011;24447;43.460;25.744;2024-02-23T05:47:33;18.90;;;7.00;;
38693;SDS011;24447;43.460;25.744;2024-02-23T05:49:58;18.63;;;8.68;;
38693;SDS011;24447;43.460;25.744;2024-02-23T05:52:24;22.38;;;9.68;;
38693;SDS011;24447;43.460;25.744;2024-02-23T05:54:50;26.80;;;10.45;;
38693;SDS011;24447;43.460;25.744;2024-02-23T05:57:18;28.23;;;11.98;;
38693;SDS011;24447;43.460;25.744;2024-02-23T05:59:44;26.10;;;11.73;;
38693;SDS011;24447;43.460;25.744;2024-02-23T06:02:10;32.13;;;12.75;;
38693;SDS011;24447;43.460;25.744;2024-02-23T06:04:36;30.70;;;11.70;;
38693;SDS011;24447;43.460;25.744;2024-02-23T06:07:02;41.67;;;13.05;;
38693;SDS011;24447;43.460;25.744;2024-02-23T06:09:27;41.28;;;18.05;;
38693;SDS011;24447;43.460;25.744;2024-02-23T06:11:53;40.30;;;17.15;;
38693;SDS011;24447;43.460;25.744;2024-02-23T06:14:19;35.58;;;15.00;;
38693;SDS011;24447;43.460;25.744;2024-02-23T06:16:45;35.75;;;15.93;;
38693;SDS011;24447;43.460;25.744;2024-02-23T06:19:11;38.17;;;16.35;;
38693;SDS011;24447;43.460;25.744;2024-02-23T06:21:37;38.75;;;16.08;;
38693;SDS011;24447;43.460;25.744;2024-02-23T06:24:03;41.53;;;18.92;;
38693;SDS011;24447;43.460;25.744;2024-02-23T06:26:29;37.95;;;18.98;;
38693;SDS011;24447;43.460;25.744;2024-02-23T06:28:55;48.47;;;21.70;;
38693;SDS011;24447;43.460;25.744;2024-02-23T06:31:21;50.22;;;21.63;;
38693;SDS011;24447;43.460;25.744;2024-02-23T06:33:47;50.50;;;26.02;;
38693;SDS011;24447;43.460;25.744;2024-02-23T06:36:14;51.15;;;22.67;;
38693;SDS011;24447;43.460;25.744;2024-02-23T06:38:41;65.00;;;26.48;;
38693;SDS011;24447;43.460;25.744;2024-02-23T06:41:06;49.28;;;26.45;;
38693;SDS011;24447;43.460;25.744;2024-02-23T06:43:35;57.75;;;29.15;;
38693;SDS011;24447;43.460;25.744;2024-02-23T06:46:08;57.13;;;26.92;;
38693;SDS011;24447;43.460;25.744;2024-02-23T06:48:34;51.03;;;20.73;;
38693;SDS011;24447;43.460;25.744;2024-02-23T06:51:01;38.40;;;17.38;;
38693;SDS011;24447;43.460;25.744;2024-02-23T06:53:28;34.53;;;17.25;;
38693;SDS011;24447;43.460;25.744;2024-02-23T06:55:54;34.50;;;15.65;;
38693;SDS011;24447;43.460;25.744;2024-02-23T06:58:20;30.38;;;13.75;;
38693;SDS011;24447;43.460;25.744;2024-02-23T07:00:46;27.75;;;11.13;;
38693;SDS011;24447;43.460;25.744;2024-02-23T07:03:12;26.45;;;10.88;;
38693;SDS011;24447;43.460;25.744;2024-02-23T07:05:39;26.50;;;10.73;;
38693;SDS011;24447;43.460;25.744;2024-02-23T07:08:07;23.10;;;10.25;;
38693;SDS011;24447;43.460;25.744;2024-02-23T07:10:33;29.67;;;9.88;;
38693;SDS011;24447;43.460;25.744;2024-02-23T07:12:59;25.30;;;10.23;;
38693;SDS011;24447;43.460;25.744;2024-02-23T07:15:25;20.55;;;7.95;;
38693;SDS011;24447;43.460;25.744;2024-02-23T07:17:51;19.60;;;7.97;;
38693;SDS011;24447;43.460;25.744;2024-02-23T07:20:17;22.90;;;8.93;;
38693;SDS011;24447;43.460;25.744;2024-02-23T07:22:46;30.55;;;12.82;;
38693;SDS011;24447;43.460;25.744;2024-02-23T07:25:16;24.63;;;9.00;;
38693;SDS011;24447;43.460;25.744;2024-02-23T07:27:43;19.77;;;8.43;;
38693;SDS011;24447;43.460;25.744;2024-02-23T07:30:10;18.50;;;6.90;;
38693;SDS011;24447;43.460;25.744;2024-02-23T07:32:37;16.35;;;6.60;;
38693;SDS011;24447;43.460;25.744;2024-02-23T07:35:03;15.55;;;7.00;;
38693;SDS011;24447;43.460;25.744;2024-02-23T07:37:29;13.45;;;5.80;;
38693;SDS011;24447;43.460;25.744;2024-02-23T07:39:55;12.95;;;4.80;;
38693;SDS011;24447;43.460;25.744;2024-02-23T07:42:21;13.55;;;5.05;;
38693;SDS011;24447;43.460;25.744;2024-02-23T07:44:47;16.17;;;6.13;;
38693;SDS011;24447;43.460;25.744;2024-02-23T07:47:13;12.98;;;5.43;;
38693;SDS011;24447;43.460;25.744;2024-02-23T07:49:39;16.17;;;5.75;;
38693;SDS011;24447;43.460;25.744;2024-02-23T07:52:07;14.07;;;6.38;;
38693;SDS011;24447;43.460;25.744;2024-02-23T07:54:33;18.20;;;6.15;;
38693;SDS011;24447;43.460;25.744;2024-02-23T07:56:59;16.52;;;5.78;;
38693;SDS011;24447;43.460;25.744;2024-02-23T07:59:25;16.88;;;6.32;;
38693;SDS011;24447;43.460;25.744;2024-02-23T08:01:53;18.88;;;6.32;;
38693;SDS011;24447;43.460;25.744;2024-02-23T08:04:23;15.45;;;5.95;;
38693;SDS011;24447;43.460;25.744;2024-02-23T08:06:49;14.57;;;5.75;;
38693;SDS011;24447;43.460;25.744;2024-02-23T08:09:16;15.98;;;5.68;;
38693;SDS011;24447;43.460;25.744;2024-02-23T08:11:42;22.42;;;6.97;;
38693;SDS011;24447;43.460;25.744;2024-02-23T08:14:08;19.20;;;7.07;;
38693;SDS011;24447;43.460;25.744;2024-02-23T08:16:34;19.30;;;7.35;;
38693;SDS011;24447;43.460;25.744;2024-02-23T08:19:00;17.25;;;6.82;;
38693;SDS011;24447;43.460;25.744;2024-02-23T08:21:26;18.33;;;7.07;;
38693;SDS011;24447;43.460;25.744;2024-02-23T08:23:52;15.20;;;6.25;;
38693;SDS011;24447;43.460;25.744;2024-02-23T08:26:18;14.73;;;5.53;;
38693;SDS011;24447;43.460;25.744;2024-02-23T08:28:44;11.38;;;5.00;;
38693;SDS011;24447;43.460;25.744;2024-02-23T08:31:10;10.25;;;4.72;;
38693;SDS011;24447;43.460;25.744;2024-02-23T08:33:36;11.82;;;4.78;;
38693;SDS011;24447;43.460;25.744;2024-02-23T08:36:02;13.43;;;4.95;;
38693;SDS011;24447;43.460;25.744;2024-02-23T08:38:30;10.15;;;4.40;;
38693;SDS011;24447;43.460;25.744;2024-02-23T08:40:57;13.45;;;4.88;;
38693;SDS011;24447;43.460;25.744;2024-02-23T08:43:26;10.95;;;3.88;;
38693;SDS011;24447;43.460;25.744;2024-02-23T08:45:52;10.68;;;3.85;;
38693;SDS011;24447;43.460;25.744;2024-02-23T08:48:18;7.28;;;3.70;;
38693;SDS011;24447;43.460;25.744;2024-02-23T08:50:44;10.57;;;4.63;;
38693;SDS011;24447;43.460;25.744;2024-02-23T08:53:10;10.15;;;4.20;;
38693;SDS011;24447;43.460;25.744;2024-02-23T08:55:36;10.18;;;4.60;;
38693;SDS011;24447;43.460;25.744;2024-02-23T08:58:02;14.30;;;4.68;;
38693;SDS011;24447;43.460;25.744;2024-02-23T09:00:30;13.40;;;5.07;;
38693;SDS011;24447;43.460;25.744;2024-02-23T09:02:56;11.13;;;4.63;;
38693;SDS011;24447;43.460;25.744;2024-02-23T09:05:22;9.68;;;4.60;;
38693;SDS011;24447;43.460;25.744;2024-02-23T09:07:48;9.70;;;3.85;;
38693;SDS011;24447;43.460;25.744;2024-02-23T09:10:14;5.78;;;3.17;;
38693;SDS011;24447;43.460;25.744;2024-02-23T09:12:40;9.88;;;4.00;;
38693;SDS011;24447;43.460;25.744;2024-02-23T09:15:06;8.13;;;3.53;;
38693;SDS011;24447;43.460;25.744;2024-02-23T09:17:33;9.48;;;3.70;;
38693;SDS011;24447;43.460;25.744;2024-02-23T09:19:59;6.78;;;3.65;;
38693;SDS011;24447;43.460;25.744;2024-02-23T09:22:24;9.60;;;4.07;;
38693;SDS011;24447;43.460;25.744;2024-02-23T09:24:50;6.50;;;3.25;;
38693;SDS011;24447;43.460;25.744;2024-02-23T09:27:16;7.53;;;3.00;;
38693;SDS011;24447;43.460;25.744;2024-02-23T09:29:42;7.75;;;3.20;;
38693;SDS011;24447;43.460;25.744;2024-02-23T09:32:08;8.35;;;3.28;;
38693;SDS011;24447;43.460;25.744;2024-02-23T09:34:34;10.18;;;3.63;;
38693;SDS011;24447;43.460;25.744;2024-02-23T09:37:00;8.35;;;3.60;;
38693;SDS011;24447;43.460;25.744;2024-02-23T09:39:26;7.20;;;3.13;;
38693;SDS011;24447;43.460;25.744;2024-02-23T09:41:55;6.22;;;3.13;;
38693;SDS011;24447;43.460;25.744;2024-02-23T09:44:26;5.50;;;3.23;;
38693;SDS011;24447;43.460;25.744;2024-02-23T09:47:03;5.63;;;2.80;;
38693;SDS011;24447;43.460;25.744;2024-02-23T09:49:40;6.60;;;3.35;;
38693;SDS011;24447;43.460;25.744;2024-02-23T09:52:09;8.10;;;3.45;;
38693;SDS011;24447;43.460;25.744;2024-02-23T09:54:36;6.50;;;3.35;;
38693;SDS011;24447;43.460;25.744;2024-02-23T09:57:09;11.27;;;3.92;;
38693;SDS011;24447;43.460;25.744;2024-02-23T09:59:35;9.60;;;3.55;;
38693;SDS011;24447;43.460;25.744;2024-02-23T10:02:08;5.63;;;3.25;;
38693;SDS011;24447;43.460;25.744;2024-02-23T10:04:35;9.73;;;3.22;;
38693;SDS011;24447;43.460;25.744;2024-02-23T10:07:01;5.63;;;2.75;;
38693;SDS011;24447;43.460;25.744;2024-02-23T10:09:29;6.82;;;3.10;;
38693;SDS011;24447;43.460;25.744;2024-02-23T10:11:55;6.38;;;3.25;;
38693;SDS011;24447;43.460;25.744;2024-02-23T10:14:22;7.07;;;3.40;;
38693;SDS011;24447;43.460;25.744;2024-02-23T10:16:48;7.82;;;3.28;;
38693;SDS011;24447;43.460;25.744;2024-02-23T10:19:19;9.30;;;3.80;;
38693;SDS011;24447;43.460;25.744;2024-02-23T10:21:45;6.65;;;2.58;;
38693;SDS011;24447;43.460;25.744;2024-02-23T10:24:12;4.15;;;2.67;;
38693;SDS011;24447;43.460;25.744;2024-02-23T10:26:38;8.13;;;3.22;;
38693;SDS011;24447;43.460;25.744;2024-02-23T10:29:04;10.48;;;3.65;;
38693;SDS011;24447;43.460;25.744;2024-02-23T10:31:34;9.73;;;3.78;;
38693;SDS011;24447;43.460;25.744;2024-02-23T10:34:08;5.32;;;3.00;;
38693;SDS011;24447;43.460;25.744;2024-02-23T10:36:40;9.50;;;3.38;;
38693;SDS011;24447;43.460;25.744;2024-02-23T10:39:07;11.40;;;3.22;;
38693;SDS011;24447;43.460;25.744;2024-02-23T10:41:37;16.90;;;6.30;;
38693;SDS011;24447;43.460;25.744;2024-02-23T10:44:05;6.07;;;3.22;;
38693;SDS011;24447;43.460;25.744;2024-02-23T10:46:32;6.10;;;2.92;;
38693;SDS011;24447;43.460;25.744;2024-02-23T10:48:58;7.10;;;2.80;;
38693;SDS011;24447;43.460;25.744;2024-02-23T10:51:24;7.30;;;2.70;;
38693;SDS011;24447;43.460;25.744;2024-02-23T10:53:50;8.10;;;3.53;;
38693;SDS011;24447;43.460;25.744;2024-02-23T10:56:18;6.97;;;3.53;;
38693;SDS011;24447;43.460;25.744;2024-02-23T10:58:44;9.98;;;3.50;;
38693;SDS011;24447;43.460;25.744;2024-02-23T11:01:11;7.97;;;3.25;;
38693;SDS011;24447;43.460;25.744;2024-02-23T11:03:38;8.13;;;3.28;;
38693;SDS011;24447;43.460;25.744;2024-02-23T11:06:07;8.45;;;4.10;;
38693;SDS011;24447;43.460;25.744;2024-02-23T11:08:33;4.28;;;2.40;;
38693;SDS011;24447;43.460;25.744;2024-02-23T11:11:11;8.68;;;3.67;;
38693;SDS011;24447;43.460;25.744;2024-02-23T11:13:39;6.50;;;3.10;;
38693;SDS011;24447;43.460;25.744;2024-02-23T11:16:05;5.03;;;2.95;;
38693;SDS011;24447;43.460;25.744;2024-02-23T11:18:34;8.05;;;3.63;;
38693;SDS011;24447;43.460;25.744;2024-02-23T11:21:02;7.53;;;3.40;;
38693;SDS011;24447;43.460;25.744;2024-02-23T11:26:27;8.63;;;3.30;;
38693;SDS011;24447;43.460;25.744;2024-02-23T11:28:53;6.78;;;3.08;;
38693;SDS011;24447;43.460;25.744;2024-02-23T11:31:20;8.00;;;3.08;;
38693;SDS011;24447;43.460;25.744;2024-02-23T11:33:50;7.53;;;3.33;;
38693;SDS011;24447;43.460;25.744;2024-02-23T11:36:27;5.80;;;3.13;;
38693;SDS011;24447;43.460;25.744;2024-02-23T11:39:00;6.35;;;3.17;;
38693;SDS011;24447;43.460;25.744;2024-02-23T11:41:27;7.45;;;3.30;;
38693;SDS011;24447;43.460;25.744;2024-02-23T11:43:54;5.70;;;2.90;;
38693;SDS011;24447;43.460;25.744;2024-02-23T11:46:20;7.75;;;2.78;;
38693;SDS011;24447;43.460;25.744;2024-02-23T11:48:47;3.58;;;2.33;;
38693;SDS011;24447;43.460;25.744;2024-02-23T11:51:20;5.32;;;2.97;;
38693;SDS011;24447;43.460;25.744;2024-02-23T11:53:47;2.20;;;2.00;;
38693;SDS011;24447;43.460;25.744;2024-02-23T11:56:14;2.00;;;1.80;;
38693;SDS011;24447;43.460;25.744;2024-02-23T11:58:40;4.63;;;2.22;;
38693;SDS011;24447;43.460;25.744;2024-02-23T12:01:06;5.03;;;2.70;;
38693;SDS011;24447;43.460;25.744;2024-02-23T12:03:32;4.13;;;2.88;;
38693;SDS011;24447;43.460;25.744;2024-02-23T12:06:02;7.13;;;2.97;;
38693;SDS011;24447;43.460;25.744;2024-02-23T12:08:29;9.03;;;3.20;;
38693;SDS011;24447;43.460;25.744;2024-02-23T12:11:04;6.38;;;3.15;;
38693;SDS011;24447;43.460;25.744;2024-02-23T12:13:30;4.28;;;2.80;;
38693;SDS011;24447;43.460;25.744;2024-02-23T12:15:57;6.85;;;3.17;;
38693;SDS011;24447;43.460;25.744;2024-02-23T12:18:23;7.72;;;3.08;;
38693;SDS011;24447;43.460;25.744;2024-02-23T12:20:51;5.20;;;2.80;;
38693;SDS011;24447;43.460;25.744;2024-02-23T12:23:18;4.32;;;2.42;;
38693;SDS011;24447;43.460;25.744;2024-02-23T12:25:56;6.03;;;2.75;;
38693;SDS011;24447;43.460;25.744;2024-02-23T12:28:24;4.28;;;1.92;;
38693;SDS011;24447;43.460;25.744;2024-02-23T12:30:59;4.43;;;2.40;;
38693;SDS011;24447;43.460;25.744;2024-02-23T12:33:27;5.75;;;2.88;;
38693;SDS011;24447;43.460;25.744;2024-02-23T12:35:54;8.07;;;2.45;;
38693;SDS011;24447;43.460;25.744;2024-02-23T12:38:23;2.83;;;2.17;;
38693;SDS011;24447;43.460;25.744;2024-02-23T12:40:50;4.88;;;2.50;;
38693;SDS011;24447;43.460;25.744;2024-02-23T12:43:17;2.85;;;1.95;;
38693;SDS011;24447;43.460;25.744;2024-02-23T12:45:44;8.32;;;2.75;;
38693;SDS011;24447;43.460;25.744;2024-02-23T12:48:14;7.75;;;3.10;;
38693;SDS011;24447;43.460;25.744;2024-02-23T12:50:40;3.33;;;2.33;;
38693;SDS011;24447;43.460;25.744;2024-02-23T12:53:06;4.43;;;2.13;;
38693;SDS011;24447;43.460;25.744;2024-02-23T12:55:35;4.15;;;2.55;;
38693;SDS011;24447;43.460;25.744;2024-02-23T12:58:02;1.45;;;1.33;;
38693;SDS011;24447;43.460;25.744;2024-02-23T13:00:28;4.75;;;2.45;;
38693;SDS011;24447;43.460;25.744;2024-02-23T13:02:54;6.25;;;2.50;;
38693;SDS011;24447;43.460;25.744;2024-02-23T13:05:20;2.47;;;2.00;;
38693;SDS011;24447;43.460;25.744;2024-02-23T13:07:46;4.55;;;2.28;;
38693;SDS011;24447;43.460;25.744;2024-02-23T13:10:13;3.97;;;1.83;;
38693;SDS011;24447;43.460;25.744;2024-02-23T13:12:39;6.78;;;2.67;;
38693;SDS011;24447;43.460;25.744;2024-02-23T13:15:11;5.90;;;2.10;;
38693;SDS011;24447;43.460;25.744;2024-02-23T13:17:38;4.00;;;2.28;;
38693;SDS011;24447;43.460;25.744;2024-02-23T13:20:05;2.92;;;2.08;;
38693;SDS011;24447;43.460;25.744;2024-02-23T13:22:31;14.60;;;2.85;;
38693;SDS011;24447;43.460;25.744;2024-02-23T13:24:57;4.22;;;2.50;;
38693;SDS011;24447;43.460;25.744;2024-02-23T13:27:22;10.10;;;3.88;;
38693;SDS011;24447;43.460;25.744;2024-02-23T13:29:48;4.00;;;2.30;;
38693;SDS011;24447;43.460;25.744;2024-02-23T13:32:14;7.88;;;3.10;;
38693;SDS011;24447;43.460;25.744;2024-02-23T13:34:40;6.75;;;2.60;;
38693;SDS011;24447;43.460;25.744;2024-02-23T13:37:06;6.97;;;2.85;;
38693;SDS011;24447;43.460;25.744;2024-02-23T13:39:32;6.30;;;2.13;;
38693;SDS011;24447;43.460;25.744;2024-02-23T13:41:58;3.88;;;2.20;;
38693;SDS011;24447;43.460;25.744;2024-02-23T13:44:24;4.47;;;2.30;;
38693;SDS011;24447;43.460;25.744;2024-02-23T13:46:50;4.45;;;2.33;;
38693;SDS011;24447;43.460;25.744;2024-02-23T13:49:16;5.35;;;2.72;;
38693;SDS011;24447;43.460;25.744;2024-02-23T13:51:42;9.18;;;2.55;;
38693;SDS011;24447;43.460;25.744;2024-02-23T13:54:07;3.35;;;2.15;;
38693;SDS011;24447;43.460;25.744;2024-02-23T13:56:33;5.82;;;2.53;;
38693;SDS011;24447;43.460;25.744;2024-02-23T13:58:59;4.43;;;2.28;;
38693;SDS011;24447;43.460;25.744;2024-02-23T14:01:25;7.80;;;2.53;;
38693;SDS011;24447;43.460;25.744;2024-02-23T14:03:52;3.15;;;2.55;;
38693;SDS011;24447;43.460;25.744;2024-02-23T14:06:18;6.53;;;2.67;;
38693;SDS011;24447;43.460;25.744;2024-02-23T14:08:44;10.27;;;3.95;;
38693;SDS011;24447;43.460;25.744;2024-02-23T14:11:12;6.95;;;3.40;;
38693;SDS011;24447;43.460;25.744;2024-02-23T14:13:38;4.47;;;2.45;;
38693;SDS011;24447;43.460;25.744;2024-02-23T14:16:04;5.75;;;2.83;;
38693;SDS011;24447;43.460;25.744;2024-02-23T14:18:31;5.97;;;2.83;;
38693;SDS011;24447;43.460;25.744;2024-02-23T14:21:01;5.57;;;2.72;;
38693;SDS011;24447;43.460;25.744;2024-02-23T14:23:28;3.17;;;2.10;;